Latest Weather Observations for Yarram Airport

IDV60801

Issued at 6:02 pm EDT Wednesday 4 March 2015 (issued every 30 minutes, with the page automatically refreshed every 10 minutes)

About weather observations | Map of weather stations | Latest weather observations for VIC | Other Formats
Station Details ID: 085151 Name: YARRAM AIRPORT Lat: -38.56 Lon: 146.75 Height: 17.9 m
Data from the previous 72 hours. | See also: Recent months at Yarram Airport
Date/Time
EDT
Temp
°C
App
Temp
°C
Dew
Point
Rel
Hum
%
Delta-T
°C
Wind Press
QNH
hPa
Press
MSL
hPa
Rain
since 9 am
mm
Dir
 
Spd
km/h
Gust
km/h
Spd
kts
Gust
kts
04/06:00pm 21.7 15.1 9.9 47 6.4 W 35 50 19 27 1008.7 1008.7 0.0
04/05:41pm 21.9 15.3 10.1 47 6.4 W 35 54 19 29 1008.9 1008.9 0.0
04/05:30pm 21.9 15.7 10.1 47 6.4 W 33 44 18 24 1008.9 1008.9 0.0
04/05:03pm 22.7 16.7 10.8 47 6.6 W 33 52 18 28 1009.0 1009.0 0.0
04/05:00pm 21.8 15.6 10.0 47 6.4 W 33 43 18 23 1009.0 1009.0 0.0
04/04:33pm 22.7 16.7 10.8 47 6.6 W 33 52 18 28 1009.1 1009.1 0.0
04/04:30pm 22.4 15.8 9.9 45 6.8 W 35 52 19 28 1009.1 1009.1 0.0
04/04:00pm 23.2 17.1 10.3 44 7.1 W 33 44 18 24 1009.3 1009.3 0.0
04/03:43pm 23.3 18.2 10.7 45 7.0 W 28 46 15 25 1009.4 1009.4 0.0
04/03:30pm 22.6 17.0 10.1 45 6.8 W 30 39 16 21 1009.7 1009.7 0.0
04/03:00pm 23.8 18.9 11.2 45 7.1 W 28 39 15 21 1010.2 1010.2 0.0
04/02:30pm 23.1 18.0 10.5 45 6.9 WNW 28 39 15 21 1010.5 1010.5 0.0
04/02:00pm 22.6 17.1 10.4 46 6.7 W 30 41 16 22 1011.0 1011.0 0.0
04/01:30pm 21.2 16.3 10.1 49 6.0 WNW 26 43 14 23 1011.4 1011.4 0.0
04/01:00pm 22.7 18.1 11.1 48 6.4 W 26 35 14 19 1011.9 1011.9 0.0
04/12:30pm 21.0 15.7 11.3 54 5.4 W 30 39 16 21 1012.4 1012.4 0.0
04/12:00pm 20.3 14.4 10.4 53 5.4 W 32 43 17 23 1013.0 1013.0 0.0
04/11:30am 20.0 14.8 10.4 54 5.2 W 28 37 15 20 1013.4 1013.4 0.0
04/11:00am 19.9 14.8 10.6 55 5.0 WNW 28 41 15 22 1013.5 1013.5 0.0
04/10:30am 19.5 15.0 11.3 59 4.5 WNW 26 37 14 20 1013.7 1013.7 0.0
04/10:00am 18.6 13.7 11.4 63 3.9 WNW 28 39 15 21 1013.6 1013.6 0.0
04/09:30am 17.7 15.6 12.4 71 2.9 W 15 20 8 11 1013.7 1013.7 0.0
04/09:00am 16.5 14.9 12.8 79 2.1 WNW 13 17 7 9 1014.1 1014.1 0.0
04/08:30am 15.4 12.9 12.3 82 1.7 NW 17 20 9 11 1014.0 1014.0 0.0
04/08:00am 13.5 11.3 12.2 92 0.7 NNW 15 19 8 10 1013.9 1013.9 0.0
04/07:30am 11.3 9.1 10.8 97 0.3 NNW 13 13 7 7 1013.8 1013.8 0.0
04/07:00am 10.1 7.7 9.9 99 0.1 NNW 13 15 7 8 1013.5 1013.5 0.0
04/06:30am 7.9 5.7 7.8 99 0.0 NNW 9 11 5 6 1013.5 1013.5 0.0
04/06:00am 10.0 8.7 10.0 100 0.0 NNW 7 7 4 4 1013.7 1013.7 0.0
04/05:30am 10.2 8.2 10.2 100 0.0 N 11 13 6 7 1013.7 1013.7 0.0
04/05:00am 8.2 6.0 7.9 98 0.1 NNW 9 9 5 5 1013.9 1013.9 0.0
04/04:30am 9.5 7.7 9.4 99 0.0 WNW 9 9 5 5 1014.1 1014.1 0.0
04/04:00am 8.9 6.9 8.5 97 0.2 W 9 9 5 5 1014.1 1014.1 0.0
04/03:30am 9.2 7.5 8.4 95 0.4 WNW 7 9 4 5 1014.1 1014.1 0.0
04/03:00am 10.1 8.4 9.8 98 0.2 NNW 9 11 5 6 1014.2 1014.2 0.0
04/02:30am 10.3 8.7 10.1 99 0.1 NNW 9 11 5 6 1014.5 1014.5 0.0
04/02:00am 10.1 8.5 10.1 100 0.0 NNW 9 11 5 6 1015.0 1015.0 0.0
04/01:30am 9.0 7.1 8.9 99 0.0 NNW 9 11 5 6 1015.3 1015.3 0.0
04/01:00am 9.5 8.1 9.4 99 0.0 NNW 7 7 4 4 1015.7 1015.7 0.0
04/12:30am 9.8 8.3 9.3 97 0.2 NNW 7 9 4 5 1015.9 1015.9 0.0
04/12:00am 10.2 8.8 9.7 97 0.3 NNW 7 9 4 5 1016.0 1016.0 0.0
 
Date/Time
EDT
Temp
°C
App
Temp
°C
Dew
Point
Rel
Hum
%
Delta-T
°C
Wind Press
QNH
hPa
Press
MSL
hPa
Rain
since 9 am
mm
Dir
 
Spd
km/h
Gust
km/h
Spd
kts
Gust
kts
03/11:30pm 11.3 9.8 10.7 96 0.3 WNW 9 11 5 6 1016.3 1016.3 0.0
03/11:00pm 10.5 9.1 9.7 95 0.4 WNW 7 11 4 6 1016.5 1016.5 0.0
03/10:30pm 11.6 11.5 10.7 94 0.5 NW 2 7 1 4 1016.5 1016.5 0.0
03/10:00pm 12.1 11.1 11.0 93 0.6 NW 7 7 4 4 1016.4 1016.4 0.0
03/09:30pm 12.4 11.5 10.8 90 0.8 NNW 6 7 3 4 1016.3 1016.3 0.0
03/09:00pm 13.2 12.2 10.9 86 1.2 N 7 7 4 4 1016.1 1016.1 0.0
03/08:30pm 14.7 14.0 11.5 81 1.7 NE 6 7 3 4 1015.8 1015.8 0.0
03/08:00pm 16.6 16.0 12.2 75 2.4 ENE 7 7 4 4 1015.6 1015.6 0.0
03/07:30pm 17.5 16.9 12.2 71 2.9 ESE 7 11 4 6 1015.3 1015.3 0.0
03/07:00pm 18.5 16.8 12.3 67 3.4 SE 13 17 7 9 1015.2 1015.2 0.0
03/06:30pm 19.2 16.7 12.2 64 3.9 SE 17 20 9 11 1015.1 1015.1 0.0
03/06:00pm 20.1 17.7 12.6 62 4.2 SSE 17 24 9 13 1015.1 1015.1 0.0
03/05:30pm 19.2 16.9 12.9 67 3.6 SE 17 22 9 12 1015.1 1015.1 0.0
03/05:00pm 19.1 16.1 12.4 65 3.7 SE 20 26 11 14 1015.0 1015.0 0.0
03/04:30pm 19.9 16.9 11.9 60 4.4 SSE 19 28 10 15 1015.1 1015.1 0.0
03/04:00pm 21.2 18.2 12.1 56 5.1 SSE 19 30 10 16 1015.2 1015.2 0.0
03/03:30pm 21.1 18.0 13.3 61 4.5 SSE 22 28 12 15 1015.3 1015.3 0.0
03/03:00pm 22.1 18.7 12.6 55 5.4 SSE 22 37 12 20 1015.5 1015.5 0.0
03/02:30pm 22.3 20.4 13.1 56 5.3 SSW 15 22 8 12 1015.6 1015.6 0.0
03/02:00pm 21.6 19.4 13.2 59 4.8 SSW 17 28 9 15 1015.8 1015.8 0.0
03/01:30pm 21.7 20.0 12.5 56 5.2 SW 13 20 7 11 1016.0 1016.0 0.0
03/01:00pm 20.7 17.8 12.9 61 4.4 SW 20 30 11 16 1016.5 1016.5 0.0
03/12:30pm 20.3 17.6 13.0 63 4.1 SW 19 26 10 14 1016.8 1016.8 0.0
03/12:00pm 20.3 17.7 13.7 66 3.8 SSW 20 30 11 16 1016.9 1016.9 0.0
03/11:30am 19.7 17.2 12.2 62 4.2 WSW 17 24 9 13 1017.1 1017.1 0.0
03/11:00am 19.8 18.1 12.6 63 4.0 WSW 13 20 7 11 1017.3 1017.3 0.0
03/10:30am 19.0 17.0 11.6 62 4.1 WSW 13 19 7 10 1017.2 1017.2 0.0
03/10:00am 19.0 18.1 13.6 71 3.1 SW 11 17 6 9 1017.2 1017.2 0.0
03/09:30am 17.6 16.2 13.5 77 2.3 WSW 13 15 7 8 1017.0 1017.0 0.0
03/09:00am 16.9 16.3 13.6 81 1.9 W 9 13 5 7 1016.8 1016.8 0.0
03/08:30am 16.1 15.0 13.2 83 1.6 W 11 13 6 7 1016.7 1016.7 0.0
03/08:00am 15.5 14.2 12.6 83 1.6 WNW 11 13 6 7 1016.6 1016.6 0.0
03/07:30am 14.6 13.2 12.3 86 1.3 NW 11 15 6 8 1016.2 1016.2 0.0
03/07:00am 14.3 12.8 11.8 85 1.3 WNW 11 15 6 8 1015.8 1015.8 0.0
03/06:30am 14.7 13.1 11.7 82 1.6 W 11 13 6 7 1015.0 1015.0 0.0
03/06:00am 14.4 13.3 11.9 85 1.3 NW 9 11 5 6 1014.8 1014.8 0.0
03/05:30am 14.0 13.5 12.6 91 0.8 NW 7 9 4 5 1014.8 1014.8 0.0
03/05:00am 14.1 13.8 12.8 92 0.7 NW 6 7 3 4 1014.6 1014.6 0.0
03/04:30am 13.9 13.6 12.8 93 0.6 W 6 9 3 5 1014.6 1014.6 0.0
03/04:00am 13.8 14.7 13.0 95 0.4 CALM 0 0 0 0 1014.9 1014.9 0.0
03/03:30am 13.8 13.6 13.0 95 0.4 N 6 9 3 5 1014.7 1014.7 0.0
03/03:00am 14.1 13.7 13.1 94 0.6 WNW 7 11 4 6 1015.0 1015.0 0.0
03/02:30am 14.2 13.8 13.1 93 0.6 W 7 9 4 5 1015.0 1015.0 0.0
03/02:00am 13.9 13.1 13.0 94 0.5 NNW 9 13 5 7 1015.3 1015.3 0.0
03/01:30am 13.9 14.1 13.0 94 0.5 NW 4 9 2 5 1014.6 1014.6 0.0
03/01:00am 14.0 13.8 13.1 94 0.5 WNW 6 9 3 5 1014.8 1014.8 0.0
03/12:30am 14.2 13.5 13.1 93 0.6 W 9 15 5 8 1015.0 1015.0 0.0
03/12:00am 14.2 13.5 13.2 94 0.6 WNW 9 15 5 8 1015.1 1015.1 0.0
 
Date/Time
EDT
Temp
°C
App
Temp
°C
Dew
Point
Rel
Hum
%
Delta-T
°C
Wind Press
QNH
hPa
Press
MSL
hPa
Rain
since 9 am
mm
Dir
 
Spd
km/h
Gust
km/h
Spd
kts
Gust
kts
02/11:30pm 14.0 13.6 13.1 94 0.5 WSW 7 9 4 5 1015.3 1015.3 0.0
02/11:00pm 14.0 14.8 12.6 91 0.8 CALM 0 0 0 0 1015.5 1015.5 0.0
02/10:30pm 14.2 13.7 12.8 91 0.8 NNE 7 9 4 5 1015.3 1015.3 0.0
02/10:00pm 14.6 14.1 12.6 88 1.1 NNE 7 11 4 6 1015.7 1015.7 0.0
02/09:30pm 15.5 14.7 13.0 85 1.4 E 9 11 5 6 1015.6 1015.6 0.0
02/09:00pm 14.9 14.1 12.8 87 1.2 SSE 9 15 5 8 1015.6 1015.6 0.0
02/08:30pm 15.4 14.5 12.7 84 1.5 NE 9 13 5 7 1015.1 1015.1 0.0
02/08:00pm 16.9 16.4 12.8 77 2.3 ENE 7 11 4 6 1015.0 1015.0 0.0
02/07:30pm 17.5 16.7 12.8 74 2.6 ENE 9 13 5 7 1014.9 1014.9 0.0
02/07:00pm 18.3 17.1 12.7 70 3.1 ENE 11 17 6 9 1014.6 1014.6 0.0
02/06:30pm 18.8 16.4 12.8 68 3.4 E 17 28 9 15 1014.1 1014.1 0.0
02/06:00pm 19.4 17.0 12.7 65 3.8 E 17 20 9 11 1014.7 1014.7 0.0
02/05:30pm 19.5 17.1 12.7 65 3.8 E 17 26 9 14 1014.7 1014.7 0.0
02/05:00pm 19.8 17.2 13.3 66 3.7 E 19 28 10 15 1014.5 1014.5 0.0
02/04:30pm 19.4 16.1 12.7 65 3.8 E 22 33 12 18 1014.1 1014.1 0.0
02/04:00pm 19.7 16.7 12.5 63 4.0 E 20 28 11 15 1014.5 1014.5 0.0
02/03:30pm 21.7 18.7 12.5 56 5.2 E 20 32 11 17 1014.9 1014.9 0.0
02/03:00pm 21.8 18.4 12.4 55 5.3 E 22 32 12 17 1015.2 1015.2 0.0
02/02:30pm 21.1 17.8 11.7 55 5.2 E 20 32 11 17 1015.7 1015.7 0.0
02/02:00pm 21.6 18.4 11.9 54 5.4 E 20 33 11 18 1015.6 1015.6 0.0
02/01:30pm 21.3 17.9 11.3 53 5.5 E 20 32 11 17 1015.9 1015.9 0.0
02/01:00pm 21.4 18.3 10.3 49 6.0 E 17 26 9 14 1016.4 1016.4 0.0
02/12:30pm 21.6 19.0 9.5 46 6.5 NE 13 24 7 13 1016.6 1016.6 0.0
02/12:00pm 20.3 17.5 8.6 47 6.1 ENE 13 24 7 13 1017.4 1017.4 0.0
02/11:30am 19.7 16.7 9.3 51 5.5 NE 15 22 8 12 1017.8 1017.8 0.0
02/11:00am 19.6 17.0 9.5 52 5.3 NE 13 24 7 13 1018.2 1018.2 0.0
02/10:30am 18.7 16.1 9.5 55 4.9 NE 13 20 7 11 1018.8 1018.8 0.0
02/10:00am 18.3 16.1 10.9 62 4.0 NE 13 20 7 11 1018.7 1018.7 0.0
02/09:30am 16.7 16.4 12.7 77 2.2 NE 6 9 3 5 1018.7 1018.7 0.0
02/09:00am 12.9 13.2 10.8 87 1.1 CALM 0 0 0 0 1019.0 1019.0 0.0
02/08:30am 11.0 10.4 10.4 96 0.3 NW 4 7 2 4 1018.9 1018.9 0.0
02/08:00am 9.1 8.9 9.1 100 0.0 CALM 0 0 0 0 1018.9 1018.9 0.0
02/07:30am 6.6 5.8 6.3 98 0.1 CALM 0 0 0 0 1018.7 1018.7 0.0
02/07:00am 5.8 4.3 5.1 95 0.3 NNW 2 9 1 5 1018.7 1018.7 0.0
02/06:30am 7.4 6.7 7.0 97 0.2 CALM 0 0 0 0 1018.4 1018.4 0.0
02/06:00am 7.6 7.0 7.2 97 0.2 CALM 0 0 0 0 1018.4 1018.4 0.0
02/05:30am 8.4 6.5 7.6 95 0.4 NNW 7 9 4 5 1018.2 1018.2 0.0
02/05:00am 8.9 6.7 8.0 94 0.4 NNW 9 11 5 6 1018.2 1018.2 0.0
02/04:30am 9.2 8.8 8.1 93 0.5 CALM 0 0 0 0 1018.2 1018.2 0.0
02/04:00am 9.5 7.7 8.1 91 0.7 NNW 7 7 4 4 1018.6 1018.6 0.0
02/03:30am 9.8 7.4 8.6 92 0.6 NW 11 13 6 7 1018.6 1018.6 0.0
02/03:00am 9.6 6.8 8.7 94 0.4 NNW 13 15 7 8 1018.3 1018.3 0.0
02/02:30am 8.1 5.5 7.8 98 0.1 NW 11 11 6 6 1018.3 1018.3 0.0
02/02:00am 7.8 6.6 6.6 92 0.5 NNW 2 7 1 4 1017.8 1017.8 0.0
02/01:30am 9.2 7.6 8.1 93 0.5 NNW 6 7 3 4 1018.0 1018.0 0.0
02/01:00am 9.4 7.6 8.0 91 0.7 NW 7 11 4 6 1017.8 1017.8 0.0
02/12:30am 10.4 8.2 9.2 92 0.6 W 11 15 6 8 1017.6 1017.6 0.0
02/12:00am 10.2 7.9 9.0 92 0.6 WNW 11 15 6 8 1017.7 1017.7 0.0
 
Date/Time
EDT
Temp
°C
App
Temp
°C
Dew
Point
Rel
Hum
%
Delta-T
°C
Wind Press
QNH
hPa
Press
MSL
hPa
Rain
since 9 am
mm
Dir
 
Spd
km/h
Gust
km/h
Spd
kts
Gust
kts
01/11:30pm 10.7 8.8 9.1 90 0.8 WNW 9 11 5 6 1018.0 1018.0 0.0
01/11:00pm 11.3 9.5 9.4 88 1.0 WNW 9 9 5 5 1018.0 1018.0 0.0
01/10:30pm 11.9 9.8 9.8 87 1.1 W 11 13 6 7 1018.2 1018.2 0.0
01/10:00pm 12.1 10.4 10.0 87 1.1 NW 9 9 5 5 1018.0 1018.0 0.0
01/09:30pm 12.7 10.7 10.2 85 1.3 WNW 11 13 6 7 1017.7 1017.7 0.0
01/09:00pm 13.8 11.9 10.4 80 1.8 W 11 15 6 8 1017.6 1017.6 0.0
01/08:30pm 14.5 11.8 10.5 77 2.1 WSW 15 20 8 11 1017.4 1017.4 0.0
01/08:00pm 15.1 12.9 10.7 75 2.3 WSW 13 19 7 10 1016.9 1016.9 0.0
01/07:30pm 16.6 12.0 10.9 69 3.1 SW 26 33 14 18 1016.5 1016.5 0.0
01/07:00pm 17.7 13.2 11.3 66 3.5 SW 26 35 14 19 1016.5 1016.5 0.0
01/06:30pm 18.3 12.7 11.6 65 3.7 SW 32 41 17 22 1016.0 1016.0 0.0

Other Formats:

Comma delimited format used in spreadsheet applications
http://www.bom.gov.au/fwo/IDV60801/IDV60801.95890.axf

JavaScript Object Notation format (JSON) in row-major order
http://www.bom.gov.au/fwo/IDV60801/IDV60801.95890.json